Time;durP1;ratioP1;P1;durP2;ratioP2;P2;SDS_P1;SDS_P2;PMS_P1;PMS_P2;Temp;Humidity;BMP_temperature;BMP_pressure;BME280_temperature;BME280_humidity;BME280_pressure;Samples;Min_cycle;Max_cycle;Signal;HPM_P1;HPM_P2
2023/01/10 00:00:36;;;;;;;8.93;2.25;;;5.40;99.90;;;;;;5010662;28;20156;-68
2023/01/10 00:03:07;;;;;;;8.98;2.50;;;5.70;99.90;;;;;;5009578;28;20065;-68
2023/01/10 00:05:34;;;;;;;10.40;3.88;;;5.60;99.90;;;;;;5010429;28;20500;-69
2023/01/10 00:08:01;;;;;;;18.33;3.15;;;5.50;99.90;;;;;;5010441;28;20049;-69
2023/01/10 00:10:28;;;;;;;12.85;3.08;;;5.40;99.90;;;;;;5010440;28;20500;-69
2023/01/10 00:15:38;;;;;;;13.38;2.72;;;5.30;99.90;;;;;;5010420;28;20175;-68
2023/01/10 00:18:03;;;;;;;7.13;2.72;;;5.60;99.90;;;;;;5010373;28;20128;-68
2023/01/10 00:20:29;;;;;;;9.23;3.45;;;5.50;99.90;;;;;;5010404;28;20416;-68
2023/01/10 00:22:55;;;;;;;12.25;3.38;;;5.20;99.90;;;;;;5009630;28;20045;-68
2023/01/10 00:25:20;;;;;;;7.65;2.67;;;5.10;99.90;;;;;;5010249;28;20044;-69
2023/01/10 00:28:18;;;;;;;9.85;3.17;;;5.10;99.90;;;;;;5010642;28;20042;-68
2023/01/10 00:30:48;;;;;;;7.72;3.53;;;5.60;99.90;;;;;;5010459;28;20089;-68
2023/01/10 00:33:19;;;;;;;18.30;4.60;;;5.30;99.90;;;;;;5009544;28;20462;-68
2023/01/10 00:35:45;;;;;;;13.15;3.42;;;5.10;99.90;;;;;;5010245;28;20049;-68
2023/01/10 00:38:10;;;;;;;12.73;3.65;;;5.30;99.90;;;;;;5010174;28;20046;-68
2023/01/10 00:40:36;;;;;;;13.95;3.47;;;5.50;99.90;;;;;;5010431;28;20111;-69
2023/01/10 00:45:46;;;;;;;16.85;3.00;;;5.10;99.90;;;;;;5011493;28;20042;-68
2023/01/10 00:48:13;;;;;;;13.50;3.20;;;5.10;99.90;;;;;;5011407;28;20117;-68
2023/01/10 00:50:38;;;;;;;18.40;3.50;;;5.30;99.90;;;;;;5009943;28;20042;-68
2023/01/10 00:53:04;;;;;;;11.55;2.92;;;5.20;99.90;;;;;;5009197;28;20050;-68
2023/01/10 00:55:31;;;;;;;10.63;3.40;;;5.50;99.90;;;;;;5011394;28;20125;-68
2023/01/10 00:57:56;;;;;;;14.05;3.47;;;5.60;99.90;;;;;;5010049;28;20057;-68
2023/01/10 01:00:22;;;;;;;11.52;4.15;;;5.50;99.90;;;;;;5010501;28;20046;-68
2023/01/10 01:02:50;;;;;;;15.50;3.72;;;5.20;99.90;;;;;;5012752;28;20049;-68
2023/01/10 01:05:16;;;;;;;14.43;3.55;;;5.60;99.90;;;;;;5013450;28;20042;-68
2023/01/10 01:07:42;;;;;;;13.70;5.22;;;5.60;99.90;;;;;;5014987;28;20044;-68
2023/01/10 01:10:26;;;;;;;13.85;3.75;;;5.60;99.90;;;;;;4997160;28;20116;-68
2023/01/10 01:12:57;;;;;;;20.40;4.28;;;5.60;99.90;;;;;;5012501;28;20077;-68
2023/01/10 01:15:23;;;;;;;17.52;4.00;;;5.30;99.90;;;;;;5013598;28;20053;-68
2023/01/10 01:17:49;;;;;;;17.80;3.53;;;5.40;99.90;;;;;;5013409;28;20060;-68
2023/01/10 01:20:16;;;;;;;15.43;3.70;;;5.90;99.90;;;;;;5014457;28;20034;-68
2023/01/10 01:22:42;;;;;;;14.38;4.47;;;5.50;99.90;;;;;;5012341;28;20414;-68
2023/01/10 01:25:08;;;;;;;17.30;3.92;;;5.70;99.90;;;;;;5013070;28;20038;-68
2023/01/10 01:27:37;;;;;;;14.13;3.85;;;5.80;99.90;;;;;;5014397;28;20042;-68
2023/01/10 01:30:04;;;;;;;15.20;3.75;;;5.60;99.90;;;;;;5012993;28;20041;-68
2023/01/10 01:32:30;;;;;;;23.58;4.60;;;5.80;99.90;;;;;;5012135;28;20172;-68
2023/01/10 01:34:55;;;;;;;14.88;3.80;;;6.00;99.90;;;;;;5013239;28;20085;-68
2023/01/10 01:37:21;;;;;;;20.02;4.18;;;6.10;99.90;;;;;;5014235;28;20045;-68
2023/01/10 01:39:46;;;;;;;24.60;4.38;;;6.00;99.90;;;;;;5013157;28;20034;-68
2023/01/10 01:42:27;;;;;;;16.35;3.65;;;6.00;99.90;;;;;;5013856;28;20091;-68
2023/01/10 01:45:08;;;;;;;14.70;3.45;;;6.00;99.90;;;;;;5012788;28;20046;-68
2023/01/10 01:48:06;;;;;;;16.65;3.58;;;5.70;99.90;;;;;;5014108;28;20072;-68
2023/01/10 01:50:52;;;;;;;15.70;4.10;;;6.00;99.90;;;;;;5012403;28;20630;-68
2023/01/10 01:53:42;;;;;;;21.35;4.00;;;5.70;99.90;;;;;;5011796;28;20450;-68
2023/01/10 01:56:22;;;;;;;13.27;3.72;;;5.90;99.90;;;;;;5012435;28;20055;-68
2023/01/10 01:58:59;;;;;;;18.30;4.22;;;5.70;99.90;;;;;;5013859;28;20038;-68
2023/01/10 02:01:27;;;;;;;13.90;3.63;;;5.50;99.90;;;;;;5013570;28;20104;-68
2023/01/10 02:04:01;;;;;;;18.00;4.30;;;5.50;99.90;;;;;;5011762;28;20057;-68
2023/01/10 02:06:27;;;;;;;13.82;3.65;;;5.90;99.90;;;;;;5012423;28;20492;-68
2023/01/10 02:09:02;;;;;;;17.17;4.20;;;5.90;99.90;;;;;;5012530;28;20048;-68
2023/01/10 02:11:28;;;;;;;22.80;3.70;;;5.70;99.90;;;;;;5012034;28;20057;-68
2023/01/10 02:13:55;;;;;;;12.55;3.22;;;5.50;99.90;;;;;;5012451;28;20041;-68
2023/01/10 02:16:20;;;;;;;18.98;3.80;;;5.50;99.90;;;;;;5013615;28;20045;-68
2023/01/10 02:18:46;;;;;;;11.75;3.67;;;5.70;99.90;;;;;;5012222;28;20120;-68
2023/01/10 02:21:36;;;;;;;13.77;3.72;;;5.50;99.90;;;;;;5012284;28;20085;-68
2023/01/10 02:24:37;;;;;;;18.10;4.43;;;5.70;99.90;;;;;;5012630;28;20056;-68
2023/01/10 02:27:25;;;;;;;17.00;3.13;;;5.60;99.90;;;;;;4998550;28;20103;-68
2023/01/10 02:30:32;;;;;;;18.67;4.45;;;5.70;99.90;;;;;;5011991;28;20041;-68
2023/01/10 02:33:07;;;;;;;15.80;3.47;;;5.80;99.90;;;;;;5011443;28;20050;-68
2023/01/10 02:35:56;;;;;;;15.63;4.93;;;5.50;99.90;;;;;;5012192;28;20052;-70
2023/01/10 02:39:06;;;;;;;17.52;4.03;;;5.40;99.90;;;;;;5011902;28;20061;-69
2023/01/10 02:41:47;;;;;;;21.98;4.03;;;5.60;99.90;;;;;;5013670;28;20099;-69
2023/01/10 02:44:23;;;;;;;14.93;4.38;;;5.50;99.90;;;;;;5013276;28;20076;-69
2023/01/10 02:46:49;;;;;;;22.85;5.15;;;5.70;99.90;;;;;;5019237;28;20577;-69
2023/01/10 02:49:15;;;;;;;17.27;3.45;;;5.60;99.90;;;;;;5011569;28;20113;-69
2023/01/10 02:51:40;;;;;;;18.48;3.80;;;6.00;99.90;;;;;;5011898;28;20121;-69
2023/01/10 02:54:21;;;;;;;23.40;4.70;;;5.90;99.90;;;;;;5010998;28;20033;-69
2023/01/10 02:57:05;;;;;;;15.30;3.80;;;5.60;99.90;;;;;;5011553;28;20046;-69
2023/01/10 02:59:50;;;;;;;17.00;3.60;;;5.90;99.90;;;;;;5011407;28;20038;-69
2023/01/10 03:02:48;;;;;;;17.13;4.22;;;5.80;99.90;;;;;;5011187;28;20503;-68
2023/01/10 03:05:21;;;;;;;15.07;3.78;;;5.50;99.90;;;;;;5011570;28;20081;-69
2023/01/10 03:08:00;;;;;;;20.23;3.17;;;5.80;99.90;;;;;;5011299;28;20060;-69
2023/01/10 03:10:41;;;;;;;14.27;3.28;;;5.60;99.90;;;;;;5011565;28;20038;-69
2023/01/10 03:13:22;;;;;;;15.20;3.65;;;5.90;99.90;;;;;;5010490;28;20048;-69
2023/01/10 03:15:50;;;;;;;16.83;3.05;;;5.70;99.90;;;;;;5011418;28;20077;-69
2023/01/10 03:18:22;;;;;;;13.57;2.88;;;6.00;99.90;;;;;;5010990;28;20042;-68
2023/01/10 03:20:51;;;;;;;16.55;4.22;;;5.60;99.90;;;;;;4994829;28;20088;-69
2023/01/10 03:23:20;;;;;;;13.07;3.50;;;5.60;99.90;;;;;;5009381;28;20129;-69
2023/01/10 03:25:49;;;;;;;17.58;4.00;;;5.80;99.90;;;;;;5005979;28;20038;-69
2023/01/10 03:28:22;;;;;;;13.48;2.85;;;5.70;99.90;;;;;;5011946;28;20042;-69
2023/01/10 03:31:11;;;;;;;17.40;3.80;;;5.90;99.90;;;;;;5010869;28;20125;-69
2023/01/10 03:33:37;;;;;;;14.68;3.58;;;5.90;99.90;;;;;;5011525;28;20113;-69
2023/01/10 03:36:25;;;;;;;19.30;4.68;;;5.80;99.90;;;;;;5012352;28;20041;-69
2023/01/10 03:38:54;;;;;;;16.08;5.57;;;5.50;99.90;;;;;;4978727;28;20045;-69
2023/01/10 03:41:37;;;;;;;15.07;3.80;;;5.60;99.90;;;;;;5010633;28;20069;-68
2023/01/10 03:47:24;;;;;;;27.20;4.90;;;5.60;99.90;;;;;;5012111;28;20143;-69
2023/01/10 03:49:55;;;;;;;13.85;3.17;;;5.70;99.90;;;;;;5011901;28;20121;-69
2023/01/10 03:52:21;;;;;;;15.55;3.50;;;5.70;99.90;;;;;;5010354;28;20048;-69
2023/01/10 03:54:47;;;;;;;18.98;3.55;;;6.00;99.90;;;;;;5010548;28;20052;-69
2023/01/10 03:57:22;;;;;;;18.98;4.03;;;6.00;99.90;;;;;;5010897;28;20042;-69
2023/01/10 03:59:51;;;;;;;17.42;4.18;;;5.70;99.90;;;;;;5010831;28;20061;-69
2023/01/10 04:02:17;;;;;;;18.60;3.78;;;5.90;99.90;;;;;;5009865;28;20573;-69
2023/01/10 04:04:42;;;;;;;20.02;5.22;;;5.90;99.90;;;;;;4993848;28;20078;-68
2023/01/10 04:07:08;;;;;;;17.02;4.13;;;6.10;99.90;;;;;;5010562;28;20073;-69
2023/01/10 04:09:34;;;;;;;14.55;4.18;;;6.20;99.90;;;;;;5011946;28;20128;-69
2023/01/10 04:12:00;;;;;;;15.20;3.40;;;5.80;99.90;;;;;;5010824;28;20104;-69
2023/01/10 04:14:26;;;;;;;19.48;3.45;;;6.10;99.90;;;;;;5009502;28;20042;-68
2023/01/10 04:16:52;;;;;;;21.35;3.67;;;5.70;99.90;;;;;;5011544;28;20049;-69
2023/01/10 04:19:17;;;;;;;13.13;3.88;;;6.20;99.90;;;;;;5011623;28;20040;-69
2023/01/10 04:21:43;;;;;;;17.92;3.33;;;6.00;99.90;;;;;;5010247;28;20050;-68
2023/01/10 04:24:08;;;;;;;15.98;2.85;;;5.60;99.90;;;;;;5009783;28;20041;-69
2023/01/10 04:26:34;;;;;;;19.98;3.50;;;5.80;99.90;;;;;;5011582;28;20518;-69
2023/01/10 04:29:00;;;;;;;14.07;3.20;;;5.60;99.90;;;;;;5011560;28;20492;-69
2023/01/10 04:31:25;;;;;;;16.17;4.72;;;5.90;99.90;;;;;;5010392;28;20041;-69
2023/01/10 04:33:51;;;;;;;19.95;4.97;;;5.60;99.90;;;;;;4993323;28;20112;-69
2023/01/10 04:36:17;;;;;;;23.45;4.53;;;5.80;99.90;;;;;;5014062;28;20095;-69
2023/01/10 04:38:43;;;;;;;18.52;3.85;;;5.50;99.90;;;;;;5015343;28;20045;-69
2023/01/10 04:41:08;;;;;;;19.42;4.30;;;5.40;99.90;;;;;;5013914;28;20038;-69
2023/01/10 04:43:34;;;;;;;17.35;3.42;;;5.60;99.90;;;;;;5012918;28;20050;-69
2023/01/10 04:45:59;;;;;;;17.65;4.47;;;5.90;99.90;;;;;;5013756;28;20062;-69
2023/01/10 04:48:26;;;;;;;19.10;3.63;;;5.50;99.90;;;;;;5013854;28;20037;-69
2023/01/10 04:50:52;;;;;;;20.20;4.55;;;5.50;99.90;;;;;;5015253;28;20072;-69
2023/01/10 04:53:18;;;;;;;16.23;3.70;;;5.80;99.90;;;;;;5012919;28;20073;-69
2023/01/10 04:55:45;;;;;;;17.73;4.05;;;5.80;99.90;;;;;;5013805;28;20096;-69
2023/01/10 04:58:10;;;;;;;17.00;4.32;;;5.60;99.90;;;;;;5014732;28;20067;-69
2023/01/10 05:00:36;;;;;;;21.35;4.68;;;5.90;99.90;;;;;;5014750;28;20041;-69
2023/01/10 05:03:02;;;;;;;19.42;3.83;;;5.50;99.90;;;;;;5012600;28;20050;-69
2023/01/10 05:05:28;;;;;;;17.38;5.15;;;5.50;99.90;;;;;;5013550;28;20124;-69
2023/01/10 05:07:53;;;;;;;14.05;3.83;;;5.90;99.90;;;;;;5013367;28;20048;-69
2023/01/10 05:10:19;;;;;;;19.77;4.00;;;5.80;99.90;;;;;;5013649;28;20033;-69
2023/01/10 05:12:45;;;;;;;20.70;4.93;;;5.90;99.90;;;;;;5012825;28;20092;-69
2023/01/10 05:15:11;;;;;;;21.33;4.60;;;5.50;99.90;;;;;;5013084;28;20431;-69
2023/01/10 05:17:36;;;;;;;17.10;4.45;;;5.60;99.90;;;;;;5013187;28;20042;-69
2023/01/10 05:20:03;;;;;;;14.70;4.00;;;5.80;99.90;;;;;;5013366;28;20045;-69
2023/01/10 05:22:28;;;;;;;15.43;4.43;;;5.90;99.90;;;;;;5012359;28;20046;-69
2023/01/10 05:24:54;;;;;;;19.80;4.57;;;5.70;99.90;;;;;;5013255;28;20464;-69
2023/01/10 05:27:19;;;;;;;20.08;4.20;;;5.90;99.90;;;;;;5014400;28;20038;-69
2023/01/10 05:29:45;;;;;;;13.40;4.20;;;6.20;99.90;;;;;;5014219;28;20104;-69
2023/01/10 05:32:10;;;;;;;12.30;4.10;;;5.90;99.90;;;;;;5012965;28;20509;-69
2023/01/10 05:34:36;;;;;;;11.23;3.70;;;6.10;99.90;;;;;;5012510;28;20046;-69
2023/01/10 05:37:02;;;;;;;17.60;4.80;;;6.00;99.90;;;;;;5013210;28;20054;-70
2023/01/10 05:39:27;;;;;;;15.98;4.38;;;6.00;99.90;;;;;;5013080;28;20041;-70
2023/01/10 05:41:53;;;;;;;20.33;4.80;;;5.90;99.90;;;;;;4996757;28;20582;-70
2023/01/10 05:44:18;;;;;;;20.45;4.82;;;6.20;99.90;;;;;;5012115;28;20519;-70
2023/01/10 05:46:44;;;;;;;19.38;4.65;;;5.80;99.90;;;;;;5013511;28;20045;-68
2023/01/10 05:49:09;;;;;;;16.95;4.85;;;6.10;99.90;;;;;;4996711;28;20046;-68
2023/01/10 05:51:35;;;;;;;22.55;5.82;;;6.10;99.90;;;;;;5014106;28;20515;-68
2023/01/10 05:54:01;;;;;;;22.30;5.35;;;5.90;99.90;;;;;;5012014;28;20037;-69
2023/01/10 05:56:26;;;;;;;21.75;5.97;;;6.40;99.90;;;;;;4996430;28;20081;-70
2023/01/10 05:58:52;;;;;;;15.27;6.28;;;6.40;99.90;;;;;;5012701;28;20046;-69
2023/01/10 06:01:17;;;;;;;18.08;5.70;;;6.00;99.90;;;;;;5013701;28;20455;-71
2023/01/10 06:03:43;;;;;;;13.68;5.88;;;5.90;99.90;;;;;;5013265;28;20070;-70
2023/01/10 06:06:08;;;;;;;18.65;6.05;;;6.00;99.90;;;;;;5013826;28;20042;-68
2023/01/10 06:08:35;;;;;;;20.65;6.20;;;6.10;99.90;;;;;;5012458;28;20034;-69
2023/01/10 06:11:05;;;;;;;21.85;7.25;;;6.20;99.90;;;;;;5013668;28;20037;-69
2023/01/10 06:13:31;;;;;;;20.77;6.88;;;6.40;99.90;;;;;;5012513;28;20037;-69
2023/01/10 06:15:56;;;;;;;22.15;6.30;;;6.40;99.90;;;;;;5012487;28;20096;-69
2023/01/10 06:18:22;;;;;;;19.70;5.82;;;6.40;99.90;;;;;;5012471;28;20054;-69
2023/01/10 06:20:47;;;;;;;20.58;7.22;;;6.30;99.90;;;;;;5012133;28;20050;-69
2023/01/10 06:23:13;;;;;;;24.27;6.57;;;6.20;99.90;;;;;;5011350;28;20042;-69
2023/01/10 06:25:40;;;;;;;14.10;4.82;;;6.20;99.90;;;;;;5013257;28;20034;-68
2023/01/10 06:28:10;;;;;;;18.48;6.32;;;5.90;99.90;;;;;;5013082;28;20038;-69
2023/01/10 06:30:36;;;;;;;14.40;5.00;;;6.00;99.90;;;;;;5013507;28;20034;-69
2023/01/10 06:33:04;;;;;;;20.98;5.07;;;6.10;99.90;;;;;;5011315;28;20041;-69
2023/01/10 06:35:30;;;;;;;23.58;5.00;;;6.00;99.90;;;;;;5013256;28;20046;-69
2023/01/10 06:37:56;;;;;;;22.45;5.07;;;5.80;99.90;;;;;;5011856;28;20041;-70
2023/01/10 06:40:22;;;;;;;14.23;4.68;;;5.90;99.90;;;;;;4995706;28;20119;-69
2023/01/10 06:42:48;;;;;;;16.73;4.57;;;5.90;99.90;;;;;;5012072;28;20049;-69
2023/01/10 06:45:14;;;;;;;19.00;4.65;;;5.90;99.90;;;;;;5013037;28;20038;-69
2023/01/10 06:47:39;;;;;;;13.25;3.85;;;5.90;99.90;;;;;;5011654;28;20175;-69
2023/01/10 06:50:05;;;;;;;18.75;4.63;;;5.70;99.90;;;;;;4995316;28;20042;-69
2023/01/10 06:52:31;;;;;;;20.75;3.92;;;5.90;99.90;;;;;;5011025;28;20061;-69
2023/01/10 06:54:57;;;;;;;15.90;3.63;;;6.00;99.90;;;;;;5011107;28;20496;-69
2023/01/10 06:57:22;;;;;;;12.88;3.85;;;5.90;99.90;;;;;;5011405;28;20053;-69
2023/01/10 06:59:48;;;;;;;13.82;3.90;;;5.80;99.90;;;;;;5010764;28;20077;-69
2023/01/10 07:02:14;;;;;;;12.77;4.30;;;5.70;99.90;;;;;;5012419;28;20049;-69
2023/01/10 07:04:40;;;;;;;16.67;4.60;;;5.90;99.90;;;;;;5011043;28;20041;-69
2023/01/10 07:07:05;;;;;;;9.63;3.38;;;5.70;99.90;;;;;;5012682;28;20117;-69
2023/01/10 07:09:31;;;;;;;10.63;2.65;;;5.80;99.90;;;;;;5011190;28;20125;-71
2023/01/10 07:11:57;;;;;;;14.10;3.17;;;5.80;99.90;;;;;;5011211;28;20704;-70
2023/01/10 07:14:22;;;;;;;12.63;3.00;;;5.60;99.90;;;;;;5044103;23;20135;-71
2023/01/10 07:16:48;;;;;;;7.57;2.88;;;5.60;99.90;;;;;;5051993;28;20044;-71
2023/01/10 07:19:16;;;;;;;11.27;2.80;;;5.60;99.90;;;;;;5050544;28;20037;-71
2023/01/10 07:21:41;;;;;;;12.73;4.35;;;5.60;99.90;;;;;;5050663;28;20083;-71
2023/01/10 07:24:07;;;;;;;19.83;5.13;;;5.70;99.90;;;;;;5043684;28;20073;-71
2023/01/10 07:26:33;;;;;;;22.13;6.75;;;5.60;99.90;;;;;;5032023;28;20041;-71
2023/01/10 07:28:58;;;;;;;12.75;4.15;;;5.60;99.90;;;;;;5030736;28;20087;-71
2023/01/10 07:31:24;;;;;;;18.50;4.88;;;5.70;99.90;;;;;;5030390;28;20045;-71
2023/01/10 07:33:51;;;;;;;22.73;5.70;;;5.70;99.90;;;;;;5029569;28;20041;-71
2023/01/10 07:36:17;;;;;;;17.63;5.22;;;6.10;99.90;;;;;;5030271;28;20064;-71
2023/01/10 07:38:42;;;;;;;13.98;4.78;;;6.00;99.90;;;;;;5013912;28;20526;-71
2023/01/10 07:41:08;;;;;;;13.23;4.50;;;6.00;99.90;;;;;;5030146;28;20041;-71
2023/01/10 07:43:33;;;;;;;19.25;5.95;;;5.90;99.90;;;;;;5030776;28;20120;-72
2023/01/10 07:46:00;;;;;;;27.52;7.47;;;6.00;99.90;;;;;;5031367;28;20037;-71
2023/01/10 07:48:26;;;;;;;15.77;4.50;;;6.10;99.90;;;;;;5031575;28;20069;-71
2023/01/10 07:50:56;;;;;;;23.08;5.60;;;6.00;99.90;;;;;;5031435;28;20123;-71
2023/01/10 07:53:22;;;;;;;17.95;5.78;;;6.20;99.90;;;;;;5029120;28;20046;-71
2023/01/10 07:55:47;;;;;;;24.27;5.53;;;6.20;99.90;;;;;;5031202;28;20121;-71
2023/01/10 07:58:13;;;;;;;16.38;5.45;;;6.20;99.90;;;;;;5031461;28;20103;-71
2023/01/10 08:00:39;;;;;;;23.27;6.10;;;6.10;99.90;;;;;;5014109;28;20136;-71
2023/01/10 08:03:05;;;;;;;22.23;6.18;;;6.30;99.90;;;;;;5030679;28;20120;-71
2023/01/10 08:05:31;;;;;;;26.38;6.82;;;6.00;99.90;;;;;;5013770;28;20037;-71
2023/01/10 08:07:58;;;;;;;22.05;6.97;;;6.10;99.90;;;;;;5030043;28;20044;-71
2023/01/10 08:10:25;;;;;;;34.95;8.02;;;6.30;99.90;;;;;;5032295;28;20037;-70
2023/01/10 08:12:50;;;;;;;26.50;6.70;;;6.30;99.90;;;;;;5034861;28;20037;-71
2023/01/10 08:15:16;;;;;;;29.85;6.88;;;6.40;99.90;;;;;;5035205;28;20566;-71
2023/01/10 08:17:42;;;;;;;23.17;6.57;;;6.40;99.90;;;;;;5035375;28;20557;-71
2023/01/10 08:20:08;;;;;;;21.92;6.20;;;6.30;99.90;;;;;;5035235;28;20072;-71
2023/01/10 08:22:34;;;;;;;31.35;6.78;;;6.20;99.90;;;;;;5034276;28;20709;-71
2023/01/10 08:24:59;;;;;;;21.88;6.35;;;6.20;99.90;;;;;;5035429;28;20116;-71
2023/01/10 08:27:25;;;;;;;27.25;6.82;;;6.40;99.90;;;;;;5035383;28;20037;-71
2023/01/10 08:29:50;;;;;;;29.10;6.88;;;6.20;99.90;;;;;;5035032;28;20033;-72
2023/01/10 08:32:16;;;;;;;21.52;6.18;;;6.40;99.90;;;;;;5034719;28;20557;-71
2023/01/10 08:34:41;;;;;;;26.58;7.07;;;6.40;99.90;;;;;;5034711;28;20071;-71
2023/01/10 08:37:10;;;;;;;23.20;5.72;;;6.10;99.90;;;;;;5033812;28;20103;-71
2023/01/10 08:39:38;;;;;;;20.75;6.45;;;6.10;99.90;;;;;;5035342;28;20048;-71
2023/01/10 08:42:03;;;;;;;20.45;6.03;;;6.20;99.90;;;;;;5035043;28;20045;-71
2023/01/10 08:44:29;;;;;;;24.65;6.43;;;6.30;99.90;;;;;;5034078;28;20115;-71
2023/01/10 08:46:55;;;;;;;29.73;6.70;;;6.30;99.90;;;;;;5034866;28;20037;-71
2023/01/10 08:49:21;;;;;;;24.65;6.40;;;6.30;99.90;;;;;;5033538;28;20033;-71
2023/01/10 08:51:47;;;;;;;18.80;6.20;;;6.50;99.90;;;;;;5034875;28;20037;-70
2023/01/10 08:54:12;;;;;;;30.58;8.48;;;6.20;99.90;;;;;;5034000;28;20044;-72
2023/01/10 08:56:39;;;;;;;30.40;7.30;;;6.50;99.90;;;;;;5034541;28;20053;-71
2023/01/10 08:59:05;;;;;;;27.75;7.07;;;6.50;99.90;;;;;;5034623;28;20112;-71
2023/01/10 09:01:30;;;;;;;31.73;7.10;;;6.40;99.90;;;;;;5033271;28;20492;-71
2023/01/10 09:03:56;;;;;;;19.85;6.25;;;6.60;99.90;;;;;;5033625;28;20113;-72
2023/01/10 09:06:23;;;;;;;19.58;5.95;;;6.40;99.90;;;;;;5034293;28;20136;-71
2023/01/10 09:08:48;;;;;;;26.48;6.20;;;6.30;99.90;;;;;;5033410;28;20053;-71
2023/01/10 09:11:14;;;;;;;25.30;7.03;;;6.60;99.90;;;;;;5034404;28;20045;-71
2023/01/10 09:13:41;;;;;;;18.77;5.85;;;6.40;99.90;;;;;;5032032;28;20499;-71
2023/01/10 09:16:07;;;;;;;41.75;6.95;;;6.50;99.90;;;;;;5033444;28;20483;-71
2023/01/10 09:18:33;;;;;;;32.50;6.60;;;6.50;99.90;;;;;;5032329;28;20046;-72
2023/01/10 09:20:59;;;;;;;27.40;6.50;;;6.60;99.90;;;;;;5033123;28;20057;-70
2023/01/10 09:23:25;;;;;;;31.55;6.28;;;6.70;99.90;;;;;;5033259;28;20091;-71
2023/01/10 09:25:53;;;;;;;22.90;5.28;;;6.60;99.90;;;;;;5034045;28;20033;-70
2023/01/10 09:28:19;;;;;;;24.60;6.95;;;6.50;99.90;;;;;;5034167;28;20033;-70
2023/01/10 09:30:46;;;;;;;27.05;5.70;;;6.60;99.90;;;;;;5033966;28;20073;-70
2023/01/10 09:33:12;;;;;;;26.52;6.03;;;6.80;99.90;;;;;;5033156;28;20056;-71
2023/01/10 09:35:39;;;;;;;24.50;6.70;;;6.80;99.90;;;;;;5033859;28;20033;-70
2023/01/10 09:38:07;;;;;;;24.60;8.85;;;6.90;99.90;;;;;;5032871;28;20114;-70
2023/01/10 09:41:04;;;;;;;25.52;6.95;;;6.80;99.90;;;;;;5033788;28;20517;-70
2023/01/10 09:43:51;;;;;;;29.63;7.80;;;7.00;99.90;;;;;;5031666;28;20050;-71
2023/01/10 09:46:17;;;;;;;18.10;6.13;;;6.90;99.90;;;;;;5033276;28;20530;-70
2023/01/10 09:49:11;;;;;;;26.23;6.38;;;7.00;99.90;;;;;;5033831;28;20033;-71
2023/01/10 09:51:47;;;;;;;;;;;7.00;99.90;;;;;;5033994;28;20507;-70
2023/01/10 09:54:32;;;;;;;26.25;6.63;;;7.00;99.90;;;;;;5032728;28;19917;-71
2023/01/10 09:57:00;;;;;;;21.27;6.65;;;7.00;99.90;;;;;;5033702;28;20073;-71
2023/01/10 09:59:38;;;;;;;32.95;6.68;;;7.10;99.90;;;;;;5033531;28;20110;-71
2023/01/10 10:02:19;;;;;;;22.90;5.95;;;6.90;99.90;;;;;;5033374;28;20041;-71
2023/01/10 10:04:58;;;;;;;23.05;6.03;;;7.00;99.90;;;;;;5033017;28;20465;-71
2023/01/10 10:07:23;;;;;;;24.67;6.43;;;7.20;99.90;;;;;;5033408;28;20037;-70
2023/01/10 10:09:49;;;;;;;31.52;5.75;;;7.20;99.90;;;;;;5033293;28;20106;-70
2023/01/10 10:12:46;;;;;;;21.60;5.80;;;7.20;99.90;;;;;;5032877;28;20168;-71
2023/01/10 10:15:30;;;;;;;24.73;5.72;;;7.20;99.90;;;;;;5032922;28;20056;-71
2023/01/10 10:18:21;;;;;;;28.20;6.20;;;7.10;99.90;;;;;;5033380;28;20515;-71
2023/01/10 10:21:13;;;;;;;24.90;5.70;;;7.20;99.90;;;;;;5032478;28;20049;-71
2023/01/10 10:24:00;;;;;;;25.15;6.30;;;7.10;99.90;;;;;;5032897;28;20081;-70
2023/01/10 10:26:35;;;;;;;27.70;5.90;;;7.20;99.90;;;;;;5033573;28;20033;-71
2023/01/10 10:29:46;;;;;;;26.17;6.45;;;7.30;99.90;;;;;;5033576;28;20033;-71
2023/01/10 10:32:21;;;;;;;25.55;5.57;;;7.10;99.90;;;;;;5021763;28;20420;-71
2023/01/10 10:34:52;;;;;;;23.45;6.68;;;7.30;99.90;;;;;;5032860;28;20116;-71
2023/01/10 10:37:32;;;;;;;21.58;5.72;;;7.20;99.90;;;;;;5033121;28;20045;-71
2023/01/10 10:40:12;;;;;;;22.17;6.22;;;7.20;99.90;;;;;;5030325;28;20061;-71
2023/01/10 10:42:41;;;;;;;27.35;5.88;;;7.20;99.90;;;;;;5031461;28;20403;-71
2023/01/10 10:45:15;;;;;;;23.90;5.07;;;7.20;99.90;;;;;;5032272;28;20037;-71
2023/01/10 10:47:48;;;;;;;30.55;6.90;;;7.20;99.90;;;;;;5030213;28;20033;-71
2023/01/10 10:50:14;;;;;;;27.83;6.18;;;7.20;99.90;;;;;;5032285;28;20033;-69
2023/01/10 10:52:41;;;;;;;29.95;5.72;;;7.30;99.90;;;;;;5030181;28;20580;-69
2023/01/10 10:55:24;;;;;;;28.40;6.38;;;7.50;99.90;;;;;;5032301;28;20099;-69
2023/01/10 10:57:50;;;;;;;31.10;7.03;;;7.30;99.90;;;;;;5032371;28;20127;-69
2023/01/10 11:00:21;;;;;;;28.17;6.38;;;7.50;99.90;;;;;;5031013;28;20515;-70
2023/01/10 11:02:52;;;;;;;20.73;6.63;;;7.40;99.90;;;;;;5030026;28;20057;-70
2023/01/10 11:05:22;;;;;;;25.42;6.43;;;7.60;99.90;;;;;;5030713;28;20053;-69
2023/01/10 11:07:51;;;;;;;19.63;5.68;;;7.40;99.90;;;;;;5030897;28;20042;-70
2023/01/10 11:10:35;;;;;;;28.73;7.22;;;7.40;99.90;;;;;;5030674;28;20046;-69
2023/01/10 11:13:21;;;;;;;33.53;5.35;;;7.70;99.90;;;;;;5029872;28;20048;-70
2023/01/10 11:15:48;;;;;;;22.60;5.43;;;7.40;99.90;;;;;;5031740;28;20068;-69
2023/01/10 11:18:15;;;;;;;23.00;5.97;;;7.70;99.90;;;;;;5031872;28;20056;-69
2023/01/10 11:20:48;;;;;;;24.83;6.68;;;7.60;99.90;;;;;;5031724;28;20068;-70
2023/01/10 11:23:23;;;;;;;33.75;8.10;;;7.50;99.90;;;;;;5030469;28;20042;-70
2023/01/10 11:25:49;;;;;;;26.48;7.10;;;7.50;99.90;;;;;;5030239;28;20495;-70
2023/01/10 11:28:17;;;;;;;24.35;7.40;;;7.60;99.90;;;;;;5031509;28;20495;-70
2023/01/10 11:30:46;;;;;;;25.17;7.20;;;7.60;99.90;;;;;;5030254;28;20099;-69
2023/01/10 11:33:26;;;;;;;26.35;7.93;;;7.70;99.90;;;;;;5028991;28;20113;-70
2023/01/10 11:36:05;;;;;;;25.27;8.88;;;7.80;99.90;;;;;;5029666;28;20041;-70
2023/01/10 11:38:31;;;;;;;25.88;8.82;;;7.60;99.90;;;;;;5029371;28;20507;-70
2023/01/10 11:41:01;;;;;;;36.28;10.40;;;7.60;99.90;;;;;;5029948;28;20038;-70
2023/01/10 11:43:36;;;;;;;27.83;10.20;;;7.80;99.90;;;;;;5030196;28;20041;-70
2023/01/10 11:46:16;;;;;;;29.20;10.32;;;7.70;99.90;;;;;;5029258;28;20061;-70
2023/01/10 11:48:58;;;;;;;36.42;11.50;;;7.70;99.90;;;;;;5029187;28;20122;-70
2023/01/10 11:51:27;;;;;;;25.65;9.75;;;7.70;99.90;;;;;;5030389;28;20042;-70
2023/01/10 11:54:13;;;;;;;24.63;10.48;;;7.80;99.90;;;;;;5029452;28;20072;-70
2023/01/10 11:56:40;;;;;;;22.63;10.18;;;7.60;99.90;;;;;;5031249;28;20048;-70
2023/01/10 11:59:17;;;;;;;28.08;10.85;;;7.60;99.90;;;;;;5031267;28;20167;-70
2023/01/10 12:01:53;;;;;;;27.90;10.68;;;7.80;99.90;;;;;;5031514;28;20407;-70
2023/01/10 12:04:21;;;;;;;29.23;11.40;;;7.60;99.90;;;;;;5030744;28;20112;-70
2023/01/10 12:06:49;;;;;;;32.10;12.00;;;7.80;99.90;;;;;;5031390;28;20041;-70
2023/01/10 12:09:38;;;;;;;25.95;11.63;;;7.70;99.90;;;;;;5031307;28;20033;-71
2023/01/10 12:12:32;;;;;;;29.42;11.73;;;7.70;99.90;;;;;;5031398;28;20068;-70
2023/01/10 12:15:18;;;;;;;29.73;12.07;;;7.70;99.90;;;;;;5030503;28;20057;-70
2023/01/10 12:17:44;;;;;;;25.70;12.02;;;7.80;99.90;;;;;;5030716;28;20049;-70
2023/01/10 12:20:13;;;;;;;31.95;12.38;;;7.80;99.90;;;;;;5030672;28;20052;-70
2023/01/10 12:22:48;;;;;;;28.42;9.88;;;7.60;99.90;;;;;;5027539;28;20048;-70
2023/01/10 12:25:20;;;;;;;30.17;11.10;;;7.70;99.90;;;;;;5030051;28;20534;-70
2023/01/10 12:27:49;;;;;;;25.17;9.70;;;7.80;99.90;;;;;;5031191;28;20045;-70
2023/01/10 12:30:43;;;;;;;24.77;11.15;;;7.60;99.90;;;;;;5031140;28;20514;-70
2023/01/10 12:33:17;;;;;;;19.20;7.55;;;7.70;99.90;;;;;;5030321;28;20396;-70
2023/01/10 12:35:54;;;;;;;23.13;7.22;;;7.50;99.90;;;;;;5031032;28;20496;-70
2023/01/10 12:44:36;;;;;;;24.30;7.30;;;7.50;99.90;;;;;;5007754;28;20140;-71
2023/01/10 12:47:29;;;;;;;29.83;7.78;;;7.60;99.90;;;;;;5015594;28;20056;-70
2023/01/10 12:50:34;;;;;;;29.52;6.72;;;7.50;99.90;;;;;;5030940;28;20470;-71
2023/01/10 12:53:30;;;;;;;34.00;7.45;;;7.50;99.90;;;;;;5029611;28;20065;-70
2023/01/10 12:55:59;;;;;;;25.20;6.82;;;7.70;99.90;;;;;;5032354;28;20041;-70
2023/01/10 12:58:43;;;;;;;21.75;6.95;;;7.60;99.90;;;;;;5033073;28;20052;-70
2023/01/10 13:01:18;;;;;;;24.88;6.45;;;7.60;99.90;;;;;;5034644;28;20262;-70
2023/01/10 13:03:48;;;;;;;28.13;7.68;;;7.60;99.90;;;;;;5033022;28;20440;-70
2023/01/10 13:06:32;;;;;;;15.98;6.22;;;7.60;99.90;;;;;;5034218;28;20034;-70
2023/01/10 13:09:04;;;;;;;20.88;7.20;;;7.70;99.90;;;;;;5033388;28;20395;-70
2023/01/10 13:11:34;;;;;;;24.33;6.82;;;7.60;99.90;;;;;;5032943;28;20046;-70
2023/01/10 13:14:03;;;;;;;28.63;6.35;;;7.70;99.90;;;;;;5053259;23;20407;-74
2023/01/10 13:16:39;;;;;;;25.27;7.03;;;7.50;99.90;;;;;;5009710;28;20104;-74
2023/01/10 13:19:10;;;;;;;23.45;6.32;;;7.60;99.90;;;;;;5015063;28;20061;-73
2023/01/10 13:21:38;;;;;;;39.50;8.13;;;7.60;99.90;;;;;;5014572;28;20038;-74